createdAt,value
2018-09-19T06:08:50.545Z,93.59
2018-09-19T06:09:50.504Z,93.83
2018-09-19T06:11:44.486Z,94.50
2018-09-19T06:12:44.113Z,93.93
2018-09-19T06:14:37.788Z,93.44
2018-09-19T06:15:37.751Z,93.35
2018-09-19T06:17:31.353Z,93.73
2018-09-19T06:18:31.313Z,93.83
2018-09-19T06:19:31.308Z,94.31
2018-09-19T06:20:31.304Z,93.35
2018-09-19T06:21:32.190Z,93.44
2018-09-19T06:22:31.293Z,93.35
2018-09-19T06:23:31.286Z,93.44
2018-09-19T06:24:31.282Z,93.35
2018-09-19T06:25:31.283Z,93.63
2018-09-19T06:26:31.277Z,93.54
2018-09-19T06:27:31.269Z,93.16
2018-09-19T06:28:31.315Z,93.06
2018-09-19T06:29:31.260Z,93.16
2018-09-19T06:30:31.262Z,93.54
2018-09-19T06:31:31.252Z,93.26
2018-09-19T06:32:31.262Z,93.35
2018-09-19T06:33:31.288Z,93.16
2018-09-19T06:34:31.238Z,93.78
2018-09-19T06:35:31.232Z,93.06
2018-09-19T06:36:31.225Z,93.49
2018-09-19T06:37:31.222Z,93.59
2018-09-19T06:38:31.223Z,93.11
2018-09-19T06:39:32.200Z,93.01
2018-09-19T06:40:31.337Z,93.01
2018-09-19T06:41:31.205Z,93.01
2018-09-19T06:42:31.196Z,93.30
2018-09-19T06:43:31.203Z,92.91
2018-09-19T06:44:31.195Z,93.21
2018-09-19T06:45:31.230Z,93.21
2018-09-19T06:46:31.184Z,92.54
2018-09-19T06:47:31.176Z,92.96
2018-09-19T06:48:31.178Z,92.29
2018-09-19T06:49:31.169Z,92.96
2018-09-19T06:50:31.169Z,92.58
2018-09-19T06:51:31.169Z,92.19
2018-09-19T06:52:31.242Z,92.39
2018-09-19T06:53:31.155Z,92.19
2018-09-19T06:54:31.143Z,92.19
2018-09-19T06:55:31.145Z,92.00
2018-09-19T06:56:31.143Z,92.39
2018-09-19T06:57:31.144Z,91.33
2018-09-19T06:58:31.129Z,91.42
2018-09-19T06:59:31.170Z,91.72
2018-09-19T07:00:31.128Z,91.66
2018-09-19T07:01:31.120Z,91.38
2018-09-19T07:02:31.117Z,91.57
2018-09-19T07:03:31.105Z,90.99
2018-09-19T07:04:31.107Z,91.57
2018-09-19T07:05:31.103Z,90.80
2018-09-19T07:06:31.098Z,90.80
2018-09-19T07:07:31.102Z,90.99
2018-09-19T07:08:31.090Z,90.80
2018-09-19T07:09:31.085Z,91.04
2018-09-19T07:10:31.130Z,90.94
2018-09-19T07:11:31.076Z,90.46
2018-09-19T07:12:31.076Z,90.46
2018-09-19T07:13:31.073Z,90.37
2018-09-19T07:14:31.067Z,90.56
2018-09-19T07:15:31.060Z,89.98
2018-09-19T07:16:31.053Z,89.89
2018-09-19T07:17:31.052Z,89.98
2018-09-19T07:18:31.047Z,89.69
2018-09-19T07:19:31.054Z,89.98
2018-09-19T07:20:31.037Z,89.79
2018-09-19T07:21:31.035Z,89.22
2018-09-19T07:22:31.031Z,88.97
2018-09-19T07:23:31.024Z,88.78
2018-09-19T07:24:31.022Z,88.59
2018-09-19T07:25:31.043Z,88.49
2018-09-19T07:26:31.021Z,88.39
2018-09-19T07:27:31.015Z,88.20
2018-09-19T07:28:31.007Z,88.10
2018-09-19T07:29:31.002Z,88.20
2018-09-19T07:30:30.998Z,88.01
2018-09-19T07:31:30.995Z,87.62
2018-09-19T07:32:31.006Z,87.43
2018-09-19T07:33:30.994Z,87.43
2018-09-19T07:34:30.999Z,87.43
2018-09-19T07:35:30.985Z,87.48
2018-09-19T07:36:30.983Z,86.52
2018-09-19T07:37:30.974Z,87.19
2018-09-19T07:38:30.970Z,86.71
2018-09-19T07:39:30.965Z,86.71
2018-09-19T07:40:30.979Z,86.71
2018-09-19T07:41:30.964Z,86.80
2018-09-19T07:42:30.954Z,86.32
2018-09-19T07:43:30.949Z,85.75
2018-09-19T07:44:30.976Z,86.32
2018-09-19T07:45:30.946Z,86.13
2018-09-19T07:46:30.981Z,85.50
2018-09-19T07:47:30.943Z,85.75
2018-09-19T07:48:30.985Z,85.02
2018-09-19T07:49:30.929Z,84.92
2018-09-19T07:50:31.033Z,84.73
2018-09-19T07:51:30.918Z,84.92
2018-09-19T07:52:30.942Z,85.11
2018-09-19T07:53:30.914Z,83.96
2018-09-19T07:54:30.958Z,83.91
2018-09-19T07:55:31.015Z,83.77
2018-09-19T07:56:30.940Z,84.10
2018-09-19T07:57:30.898Z,83.91
2018-09-19T07:58:30.897Z,83.62
2018-09-19T07:59:30.891Z,83.23
2018-09-19T08:00:30.971Z,84.39
2018-09-19T08:01:30.890Z,83.42
2018-09-19T08:02:30.889Z,83.04
2018-09-19T08:03:30.879Z,83.14
2018-09-19T08:04:30.911Z,82.94
2018-09-19T08:05:30.875Z,82.46
2018-09-19T08:06:30.869Z,82.70
2018-09-19T08:07:30.865Z,82.50
2018-09-19T08:08:30.901Z,82.31
2018-09-19T08:09:30.861Z,81.93
2018-09-19T08:10:30.873Z,81.63
2018-09-19T08:11:30.854Z,81.25
2018-09-19T08:12:30.859Z,81.25
2018-09-19T08:13:30.845Z,80.68
2018-09-19T08:14:30.894Z,80.29
2018-09-19T08:15:30.845Z,79.94
2018-09-19T08:16:30.859Z,79.56
2018-09-19T08:17:30.840Z,79.27
2018-09-19T08:18:30.861Z,79.36
2018-09-19T08:19:30.826Z,78.69
2018-09-19T08:20:30.820Z,78.11
2018-09-19T08:21:30.825Z,77.92
2018-09-19T08:22:30.874Z,77.83
2018-09-19T08:23:30.820Z,78.06
2018-09-19T08:24:30.811Z,76.90
2018-09-19T08:25:30.810Z,77.00
2018-09-19T08:26:30.831Z,76.61
2018-09-19T08:27:30.800Z,76.45
2018-09-19T08:28:30.804Z,76.55
2018-09-19T08:29:30.807Z,76.45
2018-09-19T08:30:30.800Z,76.17
2018-09-19T08:31:30.799Z,75.68
2018-09-19T08:32:30.792Z,74.52
2018-09-19T08:33:30.789Z,74.27
2018-09-19T08:34:30.784Z,73.93
2018-09-19T08:35:30.779Z,72.86
2018-09-19T08:36:30.782Z,71.80
2018-09-19T08:37:30.781Z,71.45
2018-09-19T08:38:30.778Z,70.58
2018-09-19T08:39:30.773Z,69.56
2018-09-19T08:40:30.769Z,69.26
2018-09-19T08:41:30.763Z,68.72
2018-09-19T08:42:30.765Z,67.46
2018-09-19T08:43:30.759Z,67.21
2018-09-19T08:44:30.759Z,67.01
2018-09-19T08:45:30.757Z,65.66
2018-09-19T08:46:30.762Z,65.30
2018-09-19T08:47:30.760Z,64.66
2018-09-19T08:48:30.753Z,63.79
2018-09-19T08:49:30.752Z,63.82
2018-09-19T08:50:30.808Z,63.53
2018-09-19T08:51:30.754Z,62.79
2018-09-19T08:52:30.760Z,63.07
2018-09-19T08:53:30.753Z,61.94
2018-09-19T08:54:30.758Z,61.55
2018-09-19T08:55:32.279Z,61.36
2018-09-19T08:56:30.755Z,61.65
2018-09-19T08:57:30.762Z,61.36
2018-09-19T08:58:30.774Z,60.88
2018-09-19T08:59:30.787Z,60.81
2018-09-19T09:00:30.766Z,60.71
2018-09-19T09:01:30.765Z,59.64
2018-09-19T09:02:30.767Z,59.38
2018-09-19T09:03:30.768Z,59.97
2018-09-19T09:04:30.768Z,59.58
2018-09-19T09:05:30.774Z,58.83
2018-09-19T09:06:30.780Z,58.73
2018-09-19T09:07:30.779Z,58.37
2018-09-19T09:08:30.788Z,58.34
2018-09-19T09:09:30.785Z,59.87
2018-09-19T09:10:30.793Z,59.67
2018-09-19T09:11:30.808Z,59.97
2018-09-19T09:12:30.804Z,59.67
2018-09-19T09:13:30.823Z,59.97
2018-09-19T09:14:30.811Z,59.87
2018-09-19T09:15:30.813Z,59.51
2018-09-19T09:16:30.812Z,58.86
2018-09-19T09:17:30.818Z,58.47
2018-09-19T09:18:30.822Z,57.82
2018-09-19T09:19:30.830Z,57.72
2018-09-19T09:20:30.840Z,57.46
2018-09-19T09:21:30.835Z,56.87
2018-09-19T09:22:30.842Z,57.14
2018-09-19T09:23:30.840Z,57.72
2018-09-19T09:24:30.843Z,57.85
2018-09-19T09:25:30.854Z,57.17
2018-09-19T09:26:30.854Z,57.36
2018-09-19T09:27:30.864Z,57.56
2018-09-19T09:28:30.869Z,57.07
2018-09-19T09:29:30.868Z,56.49
2018-09-19T09:30:30.871Z,57.75
2018-09-19T09:31:30.881Z,57.39
2018-09-19T09:32:30.878Z,56.61
2018-09-19T09:33:30.938Z,56.03
2018-09-19T09:34:30.897Z,56.41
2018-09-19T09:35:30.899Z,56.68
2018-09-19T09:36:30.903Z,57.36
2018-09-19T09:37:30.908Z,57.85
2018-09-19T09:38:30.933Z,57.65
2018-09-19T09:39:30.916Z,57.07
2018-09-19T09:40:30.992Z,56.81
2018-09-19T09:41:30.932Z,56.61
2018-09-19T09:42:30.930Z,55.76
2018-09-19T09:43:30.955Z,56.32
2018-09-19T09:44:30.941Z,55.54
2018-09-19T09:45:30.943Z,55.76
2018-09-19T09:46:30.951Z,56.25
2018-09-19T09:47:30.956Z,55.66
2018-09-19T09:48:30.961Z,55.64
2018-09-19T09:49:30.976Z,56.03
2018-09-19T09:50:31.016Z,56.68
2018-09-19T09:51:30.980Z,56.49
2018-09-19T09:52:30.986Z,56.75
2018-09-19T09:54:31.003Z,57.62
2018-09-19T09:55:31.001Z,57.56
2018-09-19T09:56:31.007Z,57.46
2018-09-19T09:57:31.009Z,56.41
2018-09-19T09:58:31.017Z,55.47
2018-09-19T09:59:31.016Z,55.08
2018-09-19T10:00:31.022Z,55.08
2018-09-19T10:01:31.027Z,55.27
2018-09-19T10:02:31.036Z,54.69
2018-09-19T10:03:31.046Z,54.76
2018-09-19T10:04:31.044Z,55.93
2018-09-19T10:05:31.049Z,56.32
2018-09-19T10:06:31.094Z,55.86
2018-09-19T10:07:31.057Z,54.99
2018-09-19T10:08:31.064Z,55.37
2018-09-19T10:09:31.068Z,54.72
2018-09-19T10:10:31.079Z,55.13
2018-09-19T10:11:31.081Z,53.89
2018-09-19T10:12:31.089Z,53.50
2018-09-19T10:13:31.101Z,51.95
2018-09-19T10:14:31.097Z,52.34
2018-09-19T10:15:31.098Z,51.46
2018-09-19T10:16:31.105Z,51.78
2018-09-19T10:17:31.118Z,50.82
2018-09-19T10:18:31.116Z,50.73
2018-09-19T10:19:31.129Z,50.43
2018-09-19T10:20:31.126Z,49.95
2018-09-19T10:21:31.138Z,50.63
2018-09-19T10:22:31.139Z,50.60
2018-09-19T10:23:31.143Z,51.58
2018-09-19T10:24:31.153Z,50.31
2018-09-19T10:25:31.156Z,50.80
2018-09-19T10:26:31.161Z,50.53
2018-09-19T10:27:31.167Z,50.60
2018-09-19T10:28:31.207Z,50.90
2018-09-19T10:29:31.199Z,51.21
2018-09-19T10:30:31.195Z,50.14
2018-09-19T10:31:31.195Z,50.60
2018-09-19T10:32:31.204Z,51.09
2018-09-19T10:33:31.205Z,50.41
2018-09-19T10:34:31.212Z,50.48
2018-09-19T10:35:31.250Z,51.26
2018-09-19T10:36:31.225Z,51.26
2018-09-19T10:37:31.234Z,51.09
2018-09-19T10:38:31.278Z,51.31
2018-09-19T10:39:31.240Z,50.53
2018-09-19T10:40:31.244Z,49.88
2018-09-19T10:41:31.858Z,49.68
2018-09-19T10:42:31.270Z,48.51
2018-09-19T10:43:31.265Z,48.63
2018-09-19T10:44:31.863Z,47.92
2018-09-19T10:45:31.276Z,48.49
2018-09-19T10:46:31.285Z,49.73
2018-09-19T10:47:31.287Z,49.83
2018-09-19T10:48:31.296Z,49.83
2018-09-19T10:49:31.365Z,49.71
2018-09-19T10:50:31.316Z,50.56
2018-09-19T10:51:31.310Z,51.41
2018-09-19T10:52:31.318Z,51.90
2018-09-19T10:53:31.355Z,52.36
2018-09-19T10:54:31.336Z,53.33
2018-09-19T10:55:31.375Z,53.52
2018-09-19T10:56:31.339Z,53.55
2018-09-19T10:57:31.348Z,52.48
2018-09-19T10:58:31.350Z,52.58
2018-09-19T10:59:31.354Z,51.99
2018-09-19T11:00:31.367Z,51.82
2018-09-19T11:01:31.366Z,52.19
2018-09-19T11:02:31.375Z,51.82
2018-09-19T11:03:31.372Z,51.07
2018-09-19T11:04:31.380Z,50.51
2018-09-19T11:05:31.385Z,50.58
2018-09-19T11:06:31.399Z,50.38
2018-09-19T11:07:31.394Z,50.48
2018-09-19T11:08:31.416Z,50.48
2018-09-19T11:09:31.430Z,50.56
2018-09-19T11:10:31.413Z,51.02
2018-09-19T11:11:31.416Z,51.51
2018-09-19T11:12:31.430Z,52.28
2018-09-19T11:13:31.420Z,52.58
2018-09-19T11:14:31.444Z,51.99
2018-09-19T11:15:31.433Z,52.26
2018-09-19T11:16:31.500Z,53.04
2018-09-19T11:17:31.466Z,52.87
2018-09-19T11:18:31.445Z,52.28
2018-09-19T11:19:31.448Z,51.90
2018-09-19T11:20:31.454Z,51.80
2018-09-19T11:21:31.466Z,51.99
2018-09-19T11:22:31.465Z,51.99
2018-09-19T11:23:31.466Z,51.92
2018-09-19T11:24:31.474Z,50.85
2018-09-19T11:25:31.475Z,50.82
2018-09-19T11:26:31.553Z,51.51
2018-09-19T11:27:31.489Z,51.90
2018-09-19T11:28:31.489Z,51.70
2018-09-19T11:29:31.493Z,52.12
2018-09-19T11:30:31.502Z,51.73
2018-09-19T11:31:31.502Z,51.43
2018-09-19T11:32:31.516Z,51.82
2018-09-19T11:33:31.516Z,51.85
2018-09-19T11:34:31.517Z,51.65
2018-09-19T11:35:31.517Z,51.97
2018-09-19T11:36:31.524Z,50.60
2018-09-19T11:37:31.533Z,51.19
2018-09-19T11:38:31.539Z,50.78
2018-09-19T11:39:31.539Z,50.90
2018-09-19T11:40:31.543Z,50.41
2018-09-19T11:41:31.546Z,50.31
2018-09-19T11:42:31.558Z,49.63
2018-09-19T11:43:31.565Z,50.51
2018-09-19T11:44:31.567Z,49.73
2018-09-19T11:45:31.582Z,49.73
2018-09-19T11:46:31.573Z,50.21
2018-09-19T11:47:31.575Z,49.93
2018-09-19T11:48:31.583Z,49.63
2018-09-19T11:49:31.588Z,50.31
2018-09-19T11:50:31.590Z,49.73
2018-09-19T11:51:31.591Z,50.48
2018-09-19T11:52:31.597Z,50.29
2018-09-19T11:53:31.603Z,50.58
2018-09-19T11:54:31.608Z,50.60
2018-09-19T11:55:31.611Z,50.41
2018-09-19T11:56:31.620Z,50.24
2018-09-19T11:57:31.627Z,50.53
2018-09-19T11:58:31.629Z,49.46
2018-09-19T11:59:31.633Z,49.46
2018-09-19T12:00:31.642Z,49.78
2018-09-19T12:01:31.642Z,49.39
2018-09-19T12:02:31.647Z,48.32
2018-09-19T12:03:31.654Z,48.78
2018-09-19T12:04:31.663Z,49.07
2018-09-19T12:05:31.667Z,49.63
2018-09-19T12:06:31.670Z,49.63
2018-09-19T12:07:31.676Z,49.56
2018-09-19T12:08:31.681Z,49.95
2018-09-19T12:09:31.687Z,49.37
2018-09-19T12:10:31.693Z,49.27
2018-09-19T12:11:31.698Z,49.34
2018-09-19T12:12:31.702Z,49.71
2018-09-19T12:13:31.706Z,50.26
2018-09-19T12:14:31.716Z,51.24
2018-09-19T12:15:31.721Z,51.34
2018-09-19T12:16:31.726Z,51.61
2018-09-19T12:17:31.726Z,51.51
2018-09-19T12:18:31.740Z,52.06
2018-09-19T12:19:31.803Z,53.04
2018-09-19T12:20:31.748Z,53.04
2018-09-19T12:21:31.748Z,53.62
2018-09-19T12:22:31.756Z,54.01
2018-09-19T12:23:31.756Z,53.65
2018-09-19T12:24:31.766Z,52.97
2018-09-19T12:25:31.767Z,53.09
2018-09-19T12:26:31.836Z,52.87
2018-09-19T12:27:31.774Z,51.99
2018-09-19T12:28:31.784Z,52.09
2018-09-19T12:29:31.790Z,52.12
2018-09-19T12:30:31.796Z,52.02
2018-09-19T12:31:31.794Z,51.43
2018-09-19T12:32:31.811Z,50.97
2018-09-19T12:33:31.804Z,51.36
2018-09-19T12:34:31.813Z,50.80
2018-09-19T12:35:31.812Z,50.97
2018-09-19T12:36:31.817Z,51.82
2018-09-19T12:37:31.820Z,51.82
2018-09-19T12:38:31.824Z,51.63
2018-09-19T12:39:31.859Z,51.53
2018-09-19T12:40:31.840Z,51.82
2018-09-19T12:41:31.840Z,51.92
2018-09-19T12:42:31.840Z,52.40
2018-09-19T12:43:31.843Z,52.34
2018-09-19T12:44:31.846Z,51.78
2018-09-19T12:45:31.862Z,51.09
2018-09-19T12:46:31.861Z,50.99
2018-09-19T12:47:31.862Z,51.19
2018-09-19T12:48:31.868Z,51.17
2018-09-19T12:49:31.870Z,51.85
2018-09-19T12:50:31.879Z,51.36
2018-09-19T12:51:31.881Z,51.46
2018-09-19T12:52:31.883Z,51.65
2018-09-19T12:53:31.884Z,52.24
2018-09-19T12:54:31.898Z,51.95
2018-09-19T12:55:31.893Z,51.43
2018-09-19T12:56:31.896Z,51.73
2018-09-19T12:57:31.902Z,51.34
2018-09-19T12:58:31.907Z,51.85
2018-09-19T12:59:31.913Z,51.95
2018-09-19T13:00:31.918Z,51.85
2018-09-19T13:01:31.917Z,51.75
2018-09-19T13:02:31.922Z,51.46
2018-09-19T13:03:31.931Z,50.97
2018-09-19T13:04:31.932Z,51.17
2018-09-19T13:05:31.932Z,50.90
2018-09-19T13:06:31.939Z,50.97
2018-09-19T13:07:31.948Z,50.58
2018-09-19T13:08:31.968Z,50.48
2018-09-19T13:09:31.948Z,50.58
2018-09-19T13:10:31.953Z,50.58
2018-09-19T13:11:31.951Z,49.58
2018-09-19T13:12:31.961Z,50.65
2018-09-19T13:13:31.962Z,50.36
2018-09-19T13:14:31.969Z,51.04
2018-09-19T13:15:31.972Z,50.63
2018-09-19T13:16:31.977Z,51.77
2018-09-19T13:17:32.516Z,52.36
2018-09-19T13:18:31.985Z,52.84
2018-09-19T13:19:31.985Z,52.75
2018-09-19T13:20:31.989Z,52.84
2018-09-19T13:21:31.994Z,51.87
2018-09-19T13:22:31.997Z,51.97
2018-09-19T13:23:32.001Z,52.26
2018-09-19T13:24:32.006Z,51.99
2018-09-19T13:25:32.017Z,51.43
2018-09-19T13:26:32.033Z,50.95
2018-09-19T13:27:32.009Z,50.65
2018-09-19T13:28:32.015Z,50.36
2018-09-19T13:29:32.019Z,51.12
2018-09-19T13:30:32.028Z,51.41
2018-09-19T13:31:32.029Z,51.67
2018-09-19T13:32:32.029Z,51.48
2018-09-19T13:33:32.036Z,51.58
2018-09-19T13:34:32.041Z,51.87
2018-09-19T13:35:32.035Z,51.77
2018-09-19T13:36:32.044Z,51.87
2018-09-19T13:37:32.047Z,51.31
2018-09-19T13:38:32.053Z,51.90
2018-09-19T13:39:32.055Z,51.24
2018-09-19T13:40:32.060Z,51.14
2018-09-19T13:41:32.060Z,50.36
2018-09-19T13:42:32.060Z,50.75
2018-09-19T13:43:32.063Z,49.97
2018-09-19T13:44:32.067Z,49.68
2018-09-19T13:45:32.073Z,49.97
2018-09-19T13:46:32.075Z,49.78
2018-09-19T13:47:32.138Z,49.88
2018-09-19T13:48:32.089Z,49.78
2018-09-19T13:49:32.099Z,49.58
2018-09-19T13:50:32.087Z,49.29
2018-09-19T13:51:32.093Z,48.44
2018-09-19T13:52:32.097Z,48.05
2018-09-19T13:53:32.101Z,47.09
2018-09-19T13:54:32.108Z,46.97
2018-09-19T13:55:32.106Z,46.30
2018-09-19T13:56:32.109Z,46.59
2018-09-19T13:57:32.113Z,46.59
2018-09-19T13:58:32.111Z,46.30
2018-09-19T13:59:32.116Z,45.90
2018-09-19T14:00:32.120Z,45.90
2018-09-19T14:01:32.125Z,45.90
2018-09-19T14:02:32.129Z,46.00
2018-09-19T14:03:32.128Z,45.90
2018-09-19T14:04:32.147Z,45.81
2018-09-19T14:05:32.136Z,46.20
2018-09-19T14:06:32.138Z,46.30
2018-09-19T14:07:32.145Z,45.51
2018-09-19T14:08:32.144Z,45.51
2018-09-19T14:09:32.146Z,45.90
2018-09-19T14:10:32.148Z,45.81
2018-09-19T14:11:32.150Z,45.81
2018-09-19T14:12:32.157Z,46.39
2018-09-19T14:13:32.159Z,45.81
2018-09-19T14:14:32.158Z,46.00
2018-09-19T14:15:32.169Z,45.90
2018-09-19T14:16:32.164Z,45.90
2018-09-19T14:17:32.171Z,46.17
2018-09-19T14:18:32.176Z,47.05
2018-09-19T14:19:32.174Z,47.71
2018-09-19T14:20:32.174Z,47.63
2018-09-19T14:21:32.239Z,47.34
2018-09-19T14:22:32.180Z,47.34
2018-09-19T14:23:32.179Z,47.73
2018-09-19T14:24:32.184Z,47.66
2018-09-19T14:25:32.184Z,47.46
2018-09-19T14:26:33.035Z,47.27
2018-09-19T14:27:33.037Z,47.17
2018-09-19T14:28:32.272Z,46.39
2018-09-19T14:29:32.199Z,46.76
2018-09-19T14:30:32.216Z,47.73
2018-09-19T14:31:32.201Z,47.63
2018-09-19T14:32:32.213Z,47.63
2018-09-19T14:33:32.205Z,48.12
2018-09-19T14:34:32.207Z,48.41
2018-09-19T14:35:32.255Z,48.41
2018-09-19T14:36:32.215Z,47.80
2018-09-19T14:37:32.211Z,49.07
2018-09-19T14:38:32.218Z,48.88
2018-09-19T14:39:32.224Z,50.43
2018-09-19T14:40:32.221Z,50.46
2018-09-19T14:41:32.237Z,50.07
2018-09-19T14:42:32.230Z,49.68
2018-09-19T14:43:32.229Z,48.51
2018-09-19T14:44:32.231Z,48.71
2018-09-19T14:45:32.233Z,49.27
2018-09-19T14:46:32.235Z,48.61
2018-09-19T14:47:32.234Z,48.71
2018-09-19T14:48:32.328Z,48.39
2018-09-19T14:49:32.237Z,48.78
2018-09-19T14:50:32.244Z,48.95
2018-09-19T14:51:32.243Z,49.44
2018-09-19T14:52:32.243Z,49.63
2018-09-19T14:53:32.243Z,48.95
2018-09-19T14:54:32.298Z,49.63
2018-09-19T14:55:32.245Z,49.34
2018-09-19T14:56:32.983Z,49.44
2018-09-19T14:57:32.251Z,48.75
2018-09-19T14:58:32.256Z,49.44
2018-09-19T14:59:32.254Z,49.32
2018-09-19T15:00:32.257Z,49.51
2018-09-19T15:01:32.262Z,49.99
2018-09-19T15:02:32.256Z,50.48
2018-09-19T15:03:32.258Z,49.61
2018-09-19T15:04:32.261Z,50.09
2018-09-19T15:05:32.263Z,49.83
2018-09-19T15:06:32.266Z,49.51
2018-09-19T15:07:32.264Z,49.61
2018-09-19T15:08:32.266Z,49.61
2018-09-19T15:09:32.265Z,49.71
2018-09-19T15:10:32.265Z,50.29
2018-09-19T15:11:32.271Z,49.99
2018-09-19T15:12:32.271Z,49.51
2018-09-19T15:13:32.275Z,49.99
2018-09-19T15:14:32.320Z,50.26
2018-09-19T15:15:32.271Z,50.26
2018-09-19T15:16:32.271Z,50.16
2018-09-19T15:17:32.273Z,51.04
2018-09-19T15:18:32.274Z,51.04
2018-09-19T15:19:32.277Z,50.95
2018-09-19T15:20:32.285Z,51.04
2018-09-19T15:21:32.279Z,50.75
2018-09-19T15:22:32.279Z,50.65
2018-09-19T15:23:32.278Z,50.65
2018-09-19T15:24:32.281Z,51.33
2018-09-19T15:25:32.280Z,50.48
2018-09-19T15:26:32.283Z,50.19
2018-09-19T15:27:32.283Z,50.38
2018-09-19T15:28:32.304Z,49.90
2018-09-19T15:29:32.282Z,49.61
2018-09-19T15:30:32.280Z,50.29
2018-09-19T15:31:32.286Z,49.80
2018-09-19T15:32:32.283Z,49.51
2018-09-19T15:33:32.287Z,48.83
2018-09-19T15:34:32.289Z,48.25
2018-09-19T15:35:32.287Z,48.34
2018-09-19T15:36:32.291Z,48.34
2018-09-19T15:37:32.292Z,47.93
2018-09-19T15:38:32.288Z,48.13
2018-09-19T15:39:32.292Z,48.15
2018-09-19T15:40:32.293Z,48.05
2018-09-19T15:41:32.294Z,48.13
2018-09-19T15:42:32.352Z,48.34
2018-09-19T15:43:32.297Z,48.34
2018-09-19T15:44:32.293Z,49.19
2018-09-19T15:45:32.289Z,49.10
2018-09-19T15:46:32.289Z,49.29
2018-09-19T15:47:32.295Z,49.49
2018-09-19T15:48:32.381Z,49.46
2018-09-19T15:49:32.298Z,49.66
2018-09-19T15:50:32.297Z,49.76
2018-09-19T15:51:32.299Z,49.95
2018-09-19T15:52:32.298Z,49.85
2018-09-19T15:53:32.303Z,50.53
2018-09-19T15:54:32.300Z,49.95
2018-09-19T15:55:32.333Z,50.24
2018-09-19T15:56:32.297Z,50.24
2018-09-19T15:57:32.473Z,50.34
2018-09-19T15:58:32.297Z,50.24
2018-09-19T15:59:32.299Z,50.24
2018-09-19T16:00:32.300Z,50.34
2018-09-19T16:01:32.298Z,50.04
2018-09-19T16:02:32.300Z,50.14
2018-09-19T16:03:32.299Z,50.34
2018-09-19T16:04:32.299Z,50.34
2018-09-19T16:05:32.304Z,49.85
2018-09-19T16:06:32.305Z,50.43
2018-09-19T16:07:32.302Z,50.24
2018-09-19T16:08:32.307Z,50.53
2018-09-19T16:09:32.370Z,50.41
2018-09-19T16:10:32.302Z,50.12
2018-09-19T16:11:32.301Z,50.21
2018-09-19T16:12:32.303Z,50.14
2018-09-19T16:13:32.305Z,50.41
2018-09-19T16:14:32.308Z,50.12
2018-09-19T16:15:32.300Z,50.41
2018-09-19T16:16:32.303Z,50.70
2018-09-19T16:17:32.305Z,50.31
2018-09-19T16:18:32.304Z,50.14
2018-09-19T16:19:32.303Z,50.21
2018-09-19T16:20:32.303Z,50.21
2018-09-19T16:21:32.309Z,50.12
2018-09-19T16:22:32.306Z,50.31
2018-09-19T16:23:32.303Z,50.60
2018-09-19T16:24:32.303Z,50.12
2018-09-19T16:25:32.304Z,50.31
2018-09-19T16:26:32.301Z,50.31
2018-09-19T16:27:32.307Z,50.48
2018-09-19T16:28:32.329Z,50.19
2018-09-19T16:29:32.303Z,50.48
2018-09-19T16:30:32.304Z,50.29
2018-09-19T16:31:32.304Z,51.35
2018-09-19T16:32:32.304Z,50.68
2018-09-19T16:33:32.299Z,50.87
2018-09-19T16:34:32.300Z,51.35
2018-09-19T16:35:32.305Z,51.35
2018-09-19T16:36:32.302Z,51.45
2018-09-19T16:37:32.299Z,51.26
2018-09-19T16:38:32.305Z,51.35
2018-09-19T16:39:32.313Z,51.65
2018-09-19T16:40:32.298Z,51.65
2018-09-19T16:41:32.299Z,51.84
2018-09-19T16:42:32.302Z,51.75
2018-09-19T16:43:32.299Z,51.55
2018-09-19T16:44:32.346Z,51.65
2018-09-19T16:45:32.405Z,51.93
2018-09-19T16:46:32.314Z,51.55
2018-09-19T16:47:32.315Z,52.20
2018-09-19T16:48:32.294Z,52.11
2018-09-19T16:49:32.297Z,51.91
2018-09-19T16:50:32.299Z,51.84
2018-09-19T16:51:32.298Z,51.62
2018-09-19T16:52:32.294Z,51.81
2018-09-19T16:53:32.299Z,51.91
2018-09-19T16:54:32.305Z,51.91
2018-09-19T16:55:32.295Z,51.72
2018-09-19T16:56:32.593Z,51.91
2018-09-19T16:57:32.301Z,51.91
2018-09-19T16:58:32.321Z,51.62
2018-09-19T16:59:32.294Z,51.62
2018-09-19T17:00:32.301Z,52.20
2018-09-19T17:01:32.306Z,51.89
2018-09-19T17:02:32.294Z,51.98
2018-09-19T17:03:32.291Z,52.01
2018-09-19T17:04:32.291Z,52.47
2018-09-19T17:05:32.295Z,52.56
2018-09-19T17:06:32.289Z,52.37
2018-09-19T17:07:32.290Z,52.66
2018-09-19T17:08:32.295Z,52.18
2018-09-19T17:09:32.286Z,52.86
2018-09-19T17:10:32.287Z,52.47
2018-09-19T17:11:32.293Z,52.86
2018-09-19T17:12:32.291Z,52.76
2018-09-19T17:13:32.290Z,53.34
2018-09-19T17:14:32.285Z,53.51
2018-09-19T17:15:32.367Z,52.95
2018-09-19T17:16:32.289Z,52.86
2018-09-19T17:17:32.283Z,53.15
2018-09-19T17:18:32.285Z,53.41
2018-09-19T17:19:32.289Z,53.51
2018-09-19T17:20:32.282Z,54.19
2018-09-19T17:21:32.283Z,53.61
2018-09-19T17:22:32.291Z,53.70
2018-09-19T17:23:32.284Z,53.80
2018-09-19T17:24:32.281Z,53.80
2018-09-19T17:25:32.281Z,53.70
2018-09-19T17:26:32.283Z,53.89
2018-09-19T17:27:32.279Z,54.38
2018-09-19T17:28:32.279Z,54.28
2018-09-19T17:29:32.277Z,54.19
2018-09-19T17:30:32.276Z,54.19
2018-09-19T17:31:32.273Z,54.26
2018-09-19T17:32:32.269Z,54.84
2018-09-19T17:33:32.274Z,55.04
2018-09-19T17:34:32.269Z,54.74
2018-09-19T17:35:32.277Z,54.84
2018-09-19T17:36:32.271Z,55.71
2018-09-19T17:37:32.281Z,55.71
2018-09-19T17:38:32.270Z,55.58
2018-09-19T17:39:32.274Z,55.68
2018-09-19T17:40:32.264Z,56.56
2018-09-19T17:41:32.269Z,56.26
2018-09-19T17:42:32.271Z,56.56
2018-09-19T17:43:32.265Z,56.56
2018-09-19T17:44:32.266Z,56.26
2018-09-19T17:45:32.264Z,56.36
2018-09-19T17:46:32.263Z,56.36
2018-09-19T17:47:32.261Z,56.56
2018-09-19T17:48:32.263Z,56.26
2018-09-19T17:49:32.260Z,57.04
2018-09-19T17:50:32.256Z,56.75
2018-09-19T17:51:32.262Z,57.14
2018-09-19T17:52:32.255Z,56.85
2018-09-19T17:53:32.257Z,57.81
2018-09-19T17:54:32.257Z,57.43
2018-09-19T17:55:32.260Z,56.85
2018-09-19T17:56:32.283Z,57.62
2018-09-19T17:57:32.251Z,57.04
2018-09-19T17:58:32.250Z,57.33
2018-09-19T17:59:32.248Z,57.53
2018-09-19T18:00:32.247Z,57.62
2018-09-19T18:01:32.250Z,57.79
2018-09-19T18:02:32.249Z,57.11
2018-09-19T18:03:32.246Z,58.07
2018-09-19T18:04:32.245Z,57.79
2018-09-19T18:05:32.240Z,57.59
2018-09-19T18:06:32.244Z,57.98
2018-09-19T18:07:32.240Z,57.59
2018-09-19T18:08:32.245Z,57.59
2018-09-19T18:09:32.240Z,57.79
2018-09-19T18:10:32.238Z,58.24
2018-09-19T18:11:32.234Z,58.24
2018-09-19T18:12:32.270Z,58.04
2018-09-19T18:13:32.244Z,58.14
2018-09-19T18:14:32.260Z,58.44
2018-09-19T18:15:32.233Z,58.34
2018-09-19T18:16:32.231Z,58.24
2018-09-19T18:17:32.241Z,58.24
2018-09-19T18:18:32.226Z,58.44
2018-09-19T18:19:32.224Z,58.34
2018-09-19T18:20:32.227Z,58.44
2018-09-19T18:21:32.232Z,58.63
2018-09-19T18:22:34.195Z,58.63
2018-09-19T18:23:32.223Z,58.50
2018-09-19T18:24:32.216Z,58.72
2018-09-19T18:25:32.228Z,58.02
2018-09-19T18:26:32.224Z,58.50
2018-09-19T18:27:32.218Z,58.72
2018-09-19T18:28:32.218Z,58.40
2018-09-19T18:29:32.218Z,58.40
2018-09-19T18:30:32.215Z,58.31
2018-09-19T18:31:32.218Z,58.40
2018-09-19T18:32:32.213Z,58.31
2018-09-19T18:33:32.218Z,58.80
2018-09-19T18:34:32.221Z,58.80
2018-09-19T18:35:32.203Z,58.50
2018-09-19T18:36:32.202Z,58.21
2018-09-19T18:37:32.208Z,58.31
2018-09-19T18:38:32.273Z,58.37
2018-09-19T18:39:32.216Z,58.18
2018-09-19T18:40:32.217Z,57.99
2018-09-19T18:41:32.196Z,57.79
2018-09-19T18:42:32.263Z,57.70
2018-09-19T18:43:32.211Z,57.89
2018-09-19T18:44:32.189Z,58.57
2018-09-19T18:45:32.194Z,57.79
2018-09-19T18:46:32.191Z,58.09
2018-09-19T18:47:32.190Z,58.09
2018-09-19T18:48:32.185Z,57.79
2018-09-19T18:49:32.184Z,57.79
2018-09-19T18:50:32.182Z,57.70
2018-09-19T18:51:32.182Z,57.89
2018-09-19T18:52:32.181Z,57.60
2018-09-19T18:53:32.183Z,57.19
2018-09-19T18:54:32.179Z,57.79
2018-09-19T18:55:32.190Z,57.79
2018-09-19T18:56:32.176Z,57.89
2018-09-19T18:57:32.181Z,57.89
2018-09-19T18:58:32.180Z,57.60
2018-09-19T18:59:32.172Z,57.03
2018-09-19T19:00:32.166Z,57.67
2018-09-19T19:01:32.167Z,57.67
2018-09-19T19:02:32.164Z,57.67
2018-09-19T19:03:32.161Z,56.99
2018-09-19T19:04:32.212Z,57.96